Terminal Aerodrome Forecast
Issued by NWS Jackson, KY

Home | Current Version | Previous Version | Text Only | Print | Product List | Glossary On
Versions: 1 2 3 4 5 6 7 8 9 10 11 12 13 14 15 16 17 18 19
208
FTUS43 KJKL 221515 AAA
TAFLOZ
TAF AMD
KLOZ 221515Z 2215/2312 05007KT P6SM VCSH SCT008 BKN015 OVC035
     FM221900 05009KT 4SM SHRA BR BKN008
     FM230500 05006KT 5SM SHRA OVC008=

USA.gov is the U.S. government's official web portal to all federal, state and local government web resources and services.